Time;durP1;ratioP1;P1;durP2;ratioP2;P2;SDS_P1;SDS_P2;PMS_P1;PMS_P2;Temp;Humidity;BMP_temperature;BMP_pressure;BME280_temperature;BME280_humidity;BME280_pressure;Samples;Min_cycle;Max_cycle;Signal;HPM_P1;HPM_P2
2021/08/23 00:00:25;;;;;;;11.02;7.95;;;23.90;79.70;;;;;;5041136;28;20033;-62
2021/08/23 00:02:51;;;;;;;11.32;8.40;;;23.90;79.80;;;;;;5042027;28;20034;-62
2021/08/23 00:05:18;;;;;;;9.55;8.15;;;23.90;79.50;;;;;;5040271;28;20033;-62
2021/08/23 00:07:44;;;;;;;9.10;8.20;;;23.90;79.30;;;;;;5040928;28;20017;-62
2021/08/23 00:10:13;;;;;;;9.57;8.10;;;23.90;79.00;;;;;;5031857;28;20056;-62
2021/08/23 00:12:40;;;;;;;16.48;9.30;;;23.90;79.20;;;;;;5032637;28;20038;-62
2021/08/23 00:15:08;;;;;;;11.07;8.55;;;23.90;79.60;;;;;;5032408;28;20042;-63
2021/08/23 00:17:34;;;;;;;10.02;8.68;;;23.90;79.40;;;;;;5032448;28;20030;-62
2021/08/23 00:20:03;;;;;;;8.75;7.85;;;23.80;79.80;;;;;;5034198;28;20045;-63
2021/08/23 00:22:35;;;;;;;10.57;9.48;;;23.80;79.90;;;;;;5036236;28;20054;-63
2021/08/23 00:25:02;;;;;;;9.73;8.82;;;23.70;80.00;;;;;;5036313;28;20048;-63
2021/08/23 00:27:30;;;;;;;9.93;8.90;;;23.70;80.40;;;;;;5036126;28;20037;-62
2021/08/23 00:30:08;;;;;;;11.60;8.85;;;23.70;80.20;;;;;;5035081;28;20064;-62
2021/08/23 00:32:35;;;;;;;10.20;9.05;;;23.70;80.60;;;;;;5036469;28;20041;-62
2021/08/23 00:35:02;;;;;;;10.60;9.25;;;23.70;80.60;;;;;;5036059;28;20041;-62
2021/08/23 00:37:28;;;;;;;9.90;9.00;;;23.70;80.40;;;;;;5036320;28;20390;-62
2021/08/23 00:39:55;;;;;;;9.55;8.63;;;23.70;80.70;;;;;;5034871;28;20037;-61
2021/08/23 00:42:22;;;;;;;9.45;8.40;;;23.70;80.80;;;;;;5035309;28;20049;-62
2021/08/23 00:44:48;;;;;;;9.40;8.32;;;23.70;80.80;;;;;;5035943;28;20033;-62
2021/08/23 00:47:15;;;;;;;12.73;9.15;;;23.70;80.60;;;;;;5034870;28;20482;-64
2021/08/23 00:49:41;;;;;;;10.20;8.85;;;23.70;80.60;;;;;;5036033;28;20382;-63
2021/08/23 00:52:09;;;;;;;9.32;8.27;;;23.70;80.50;;;;;;5035860;28;20017;-62
2021/08/23 00:54:36;;;;;;;11.10;7.55;;;23.70;80.40;;;;;;5035910;28;20381;-61
2021/08/23 00:57:06;;;;;;;9.65;8.30;;;23.70;79.80;;;;;;5035456;28;20034;-62
2021/08/23 00:59:36;;;;;;;10.57;9.48;;;23.70;80.00;;;;;;5035292;28;20046;-68
2021/08/23 01:02:46;;;;;;;10.20;8.95;;;23.60;80.20;;;;;;5034206;28;20041;-62
2021/08/23 01:05:25;;;;;;;11.43;9.48;;;23.60;80.20;;;;;;5032448;28;20390;-62
2021/08/23 01:07:57;;;;;;;8.90;8.00;;;23.50;79.80;;;;;;5035618;28;20378;-62
2021/08/23 01:10:45;;;;;;;10.50;8.20;;;23.50;80.00;;;;;;5035162;28;20033;-63
2021/08/23 01:13:12;;;;;;;9.73;8.05;;;23.50;79.90;;;;;;5033234;28;20374;-62
2021/08/23 01:15:39;;;;;;;9.23;8.23;;;23.50;80.10;;;;;;5033236;28;20049;-62
2021/08/23 01:18:06;;;;;;;9.40;8.02;;;23.50;79.90;;;;;;5033174;28;20033;-61
2021/08/23 01:20:39;;;;;;;10.00;8.57;;;23.50;79.70;;;;;;5034228;28;20037;-64
2021/08/23 01:23:08;;;;;;;10.27;8.13;;;23.40;79.70;;;;;;5034244;28;20047;-64
2021/08/23 01:25:37;;;;;;;9.35;7.63;;;23.40;79.70;;;;;;5034399;28;20393;-62
2021/08/23 01:28:15;;;;;;;8.70;7.90;;;23.40;79.70;;;;;;5034793;28;20045;-63
2021/08/23 01:31:06;;;;;;;9.48;8.18;;;23.30;79.80;;;;;;5034067;28;20477;-63
2021/08/23 01:33:33;;;;;;;9.05;7.82;;;23.30;79.90;;;;;;5035418;28;20045;-64
2021/08/23 01:36:00;;;;;;;10.75;8.98;;;23.30;80.00;;;;;;5034455;28;20060;-63
2021/08/23 01:38:26;;;;;;;9.13;7.60;;;23.30;79.90;;;;;;5034845;28;20374;-62
2021/08/23 01:41:07;;;;;;;9.85;8.88;;;23.30;79.80;;;;;;5034679;28;20390;-62
2021/08/23 01:43:34;;;;;;;;;;;23.20;79.90;;;;;;5035156;28;20478;-63
2021/08/23 01:46:00;;;;;;;8.55;7.65;;;23.20;80.20;;;;;;5034910;28;19916;-62
2021/08/23 01:48:27;;;;;;;9.35;7.55;;;23.10;80.30;;;;;;5034751;28;20045;-62
2021/08/23 01:50:54;;;;;;;11.63;8.05;;;23.10;80.50;;;;;;5034550;28;20470;-62
2021/08/23 01:53:32;;;;;;;10.75;8.70;;;23.10;80.40;;;;;;5035874;28;20064;-63
2021/08/23 01:56:00;;;;;;;10.00;8.25;;;23.10;80.30;;;;;;5032953;28;20052;-63
2021/08/23 01:58:27;;;;;;;14.27;9.07;;;23.10;80.40;;;;;;5034734;28;20029;-63
2021/08/23 02:00:54;;;;;;;10.85;7.90;;;23.10;80.40;;;;;;5034310;28;20045;-63
2021/08/23 02:03:20;;;;;;;9.10;8.18;;;23.00;80.80;;;;;;5034333;28;20041;-63
2021/08/23 02:05:47;;;;;;;10.48;8.57;;;23.00;80.90;;;;;;5034250;28;20482;-63
2021/08/23 02:08:13;;;;;;;9.68;8.23;;;23.00;80.90;;;;;;5033254;28;20030;-63
2021/08/23 02:10:40;;;;;;;11.90;9.00;;;23.00;81.10;;;;;;5034005;28;20033;-63
2021/08/23 02:13:06;;;;;;;9.85;7.57;;;23.00;81.10;;;;;;5034001;28;20048;-63
2021/08/23 02:15:33;;;;;;;8.88;7.97;;;23.00;81.00;;;;;;5034293;28;20037;-63
2021/08/23 02:17:59;;;;;;;9.02;8.05;;;23.00;81.10;;;;;;5033556;28;20049;-63
2021/08/23 02:20:26;;;;;;;8.98;8.07;;;23.00;81.20;;;;;;5034035;28;20041;-63
2021/08/23 02:22:52;;;;;;;10.23;8.38;;;23.00;81.40;;;;;;5033802;28;20044;-63
2021/08/23 02:25:23;;;;;;;12.25;8.82;;;23.00;81.50;;;;;;5034067;28;20382;-63
2021/08/23 02:27:51;;;;;;;10.43;9.00;;;23.00;81.20;;;;;;5033762;28;20022;-63
2021/08/23 02:30:19;;;;;;;9.95;8.13;;;22.90;81.10;;;;;;5034078;28;20369;-63
2021/08/23 02:32:46;;;;;;;9.52;7.88;;;22.90;81.10;;;;;;5033577;28;20033;-64
2021/08/23 02:35:13;;;;;;;11.07;8.32;;;22.90;81.30;;;;;;5033326;28;20053;-63
2021/08/23 02:37:40;;;;;;;12.07;8.20;;;22.80;81.20;;;;;;5033954;28;20052;-63
2021/08/23 02:40:07;;;;;;;11.93;8.02;;;22.80;81.40;;;;;;5033514;28;20056;-64
2021/08/23 02:42:34;;;;;;;10.80;8.82;;;22.80;81.40;;;;;;5033937;28;20049;-63
2021/08/23 02:45:00;;;;;;;12.50;8.52;;;22.80;81.50;;;;;;5033515;28;20374;-62
2021/08/23 02:47:27;;;;;;;8.57;7.65;;;22.80;81.70;;;;;;5033850;28;20480;-63
2021/08/23 02:49:53;;;;;;;10.55;8.35;;;22.90;81.60;;;;;;5033386;28;20037;-62
2021/08/23 02:52:20;;;;;;;11.75;8.60;;;22.90;81.60;;;;;;5033412;28;20473;-63
2021/08/23 02:54:46;;;;;;;12.48;8.52;;;22.90;81.30;;;;;;5033308;28;20041;-62
2021/08/23 02:57:12;;;;;;;10.27;8.27;;;22.90;81.10;;;;;;5033422;28;20040;-62
2021/08/23 02:59:39;;;;;;;10.25;8.63;;;22.90;80.80;;;;;;5032514;28;20045;-63
2021/08/23 03:02:05;;;;;;;10.55;8.80;;;22.80;80.30;;;;;;5033530;28;20049;-63
2021/08/23 03:04:32;;;;;;;10.23;8.40;;;22.80;79.70;;;;;;5033341;28;20045;-63
2021/08/23 03:06:58;;;;;;;9.48;7.70;;;22.80;79.50;;;;;;5032947;28;20048;-63
2021/08/23 03:09:25;;;;;;;10.70;7.88;;;22.80;80.00;;;;;;5032529;28;20045;-63
2021/08/23 03:11:51;;;;;;;8.85;7.95;;;22.80;80.00;;;;;;5033068;28;20034;-63
2021/08/23 03:14:18;;;;;;;13.30;8.68;;;22.80;80.60;;;;;;5033020;28;20056;-63
2021/08/23 03:16:44;;;;;;;13.15;9.43;;;22.80;81.00;;;;;;5032729;28;20037;-63
2021/08/23 03:19:11;;;;;;;11.45;9.13;;;22.70;81.10;;;;;;5033228;28;20026;-63
2021/08/23 03:21:37;;;;;;;12.05;8.80;;;22.70;81.00;;;;;;5032564;28;20040;-63
2021/08/23 03:24:04;;;;;;;10.93;8.65;;;22.70;80.90;;;;;;5033141;28;20497;-62
2021/08/23 03:26:38;;;;;;;10.40;8.40;;;22.70;80.80;;;;;;5032865;28;20045;-63
2021/08/23 03:29:05;;;;;;;13.55;9.07;;;22.70;80.70;;;;;;5033045;28;20052;-62
2021/08/23 03:31:32;;;;;;;11.07;9.98;;;22.70;81.00;;;;;;5032688;28;20474;-63
2021/08/23 03:33:58;;;;;;;11.60;8.60;;;22.70;81.50;;;;;;5032482;28;20068;-63
2021/08/23 03:36:25;;;;;;;11.10;9.43;;;22.70;81.70;;;;;;5032669;28;20421;-62
2021/08/23 03:38:51;;;;;;;11.43;9.35;;;22.70;81.80;;;;;;5032619;28;20099;-62
2021/08/23 03:41:18;;;;;;;10.40;9.35;;;22.60;82.50;;;;;;5032825;28;20041;-62
2021/08/23 03:43:44;;;;;;;10.73;9.23;;;22.70;82.10;;;;;;5031187;28;20072;-63
2021/08/23 03:46:11;;;;;;;12.30;9.20;;;22.60;82.10;;;;;;5033088;28;20022;-65
2021/08/23 03:48:38;;;;;;;9.82;8.48;;;22.60;82.10;;;;;;5032104;28;20041;-63
2021/08/23 03:51:05;;;;;;;10.63;9.57;;;22.60;81.80;;;;;;5032835;28;20030;-64
2021/08/23 03:53:31;;;;;;;10.98;9.73;;;22.50;82.30;;;;;;5031883;28;20029;-62
2021/08/23 03:55:58;;;;;;;11.43;9.38;;;22.50;82.80;;;;;;5031527;28;20033;-62
2021/08/23 03:58:24;;;;;;;15.23;10.90;;;22.50;83.10;;;;;;5032411;28;20033;-64
2021/08/23 04:00:51;;;;;;;13.77;12.05;;;22.50;84.30;;;;;;5032614;28;20026;-62
2021/08/23 04:03:17;;;;;;;15.70;12.75;;;22.50;85.60;;;;;;5032405;28;20037;-61
2021/08/23 04:05:45;;;;;;;17.50;13.60;;;22.20;87.90;;;;;;5032440;28;20053;-62
2021/08/23 04:08:11;;;;;;;15.75;13.00;;;22.10;89.10;;;;;;5032679;28;20049;-62
2021/08/23 04:10:38;;;;;;;14.30;12.80;;;21.90;90.00;;;;;;5032127;28;20033;-62
2021/08/23 04:13:06;;;;;;;16.65;11.80;;;22.00;89.50;;;;;;5032545;28;20054;-62
2021/08/23 04:15:33;;;;;;;15.43;13.63;;;22.20;88.60;;;;;;5032357;28;20052;-62
2021/08/23 04:17:59;;;;;;;14.05;12.55;;;22.20;88.30;;;;;;5032321;28;20030;-63
2021/08/23 04:20:26;;;;;;;14.48;12.68;;;22.20;87.90;;;;;;5032347;28;20036;-62
2021/08/23 04:22:52;;;;;;;14.10;12.60;;;22.20;87.80;;;;;;5032525;28;20033;-63
2021/08/23 04:25:19;;;;;;;13.85;11.73;;;22.10;88.10;;;;;;5032265;28;20036;-62
2021/08/23 04:27:45;;;;;;;13.73;10.55;;;22.20;87.70;;;;;;5031155;28;20037;-63
2021/08/23 04:30:12;;;;;;;16.85;13.77;;;22.30;87.70;;;;;;5032658;28;20030;-63
2021/08/23 04:32:39;;;;;;;13.43;11.52;;;22.10;88.60;;;;;;5032151;28;20026;-62
2021/08/23 04:35:05;;;;;;;13.43;10.68;;;22.00;89.10;;;;;;5031990;28;20045;-63
2021/08/23 04:37:32;;;;;;;22.20;12.05;;;22.10;89.20;;;;;;5032056;28;20385;-61
2021/08/23 04:39:58;;;;;;;14.65;11.38;;;22.20;88.30;;;;;;5032011;28;20381;-62
2021/08/23 04:42:25;;;;;;;14.30;11.18;;;22.20;87.10;;;;;;5030498;28;20050;-62
2021/08/23 04:44:51;;;;;;;12.40;11.10;;;22.30;86.50;;;;;;5032029;28;20038;-62
2021/08/23 04:47:18;;;;;;;18.50;12.95;;;22.20;86.60;;;;;;5031370;28;20060;-62
2021/08/23 04:49:44;;;;;;;15.60;11.43;;;22.20;86.80;;;;;;5032458;28;20474;-62
2021/08/23 04:52:11;;;;;;;14.88;11.90;;;22.00;87.60;;;;;;5031853;28;20119;-62
2021/08/23 04:54:37;;;;;;;12.25;10.88;;;22.00;88.00;;;;;;5032243;28;20493;-62
2021/08/23 04:57:04;;;;;;;15.63;11.68;;;22.10;87.60;;;;;;5031865;28;20046;-62
2021/08/23 04:59:30;;;;;;;13.52;10.77;;;22.20;87.00;;;;;;5031790;28;20048;-62
2021/08/23 05:01:57;;;;;;;14.45;11.18;;;22.20;86.50;;;;;;5047332;28;20048;-62
2021/08/23 05:04:23;;;;;;;13.68;10.93;;;22.30;86.20;;;;;;5051822;28;20040;-62
2021/08/23 05:06:50;;;;;;;17.98;11.65;;;22.30;85.80;;;;;;5053957;28;20033;-62
2021/08/23 05:09:16;;;;;;;12.20;9.98;;;22.30;85.30;;;;;;5054952;28;20389;-67
2021/08/23 05:11:44;;;;;;;15.48;13.13;;;22.20;85.90;;;;;;5055410;28;20049;-62
2021/08/23 05:14:10;;;;;;;13.38;10.65;;;22.20;86.40;;;;;;5054960;28;20060;-62
2021/08/23 05:16:37;;;;;;;14.80;11.27;;;22.10;86.00;;;;;;5053938;28;20033;-61
2021/08/23 05:19:03;;;;;;;12.35;10.90;;;22.20;85.90;;;;;;5053733;28;20059;-62
2021/08/23 05:21:30;;;;;;;12.48;10.55;;;22.10;85.10;;;;;;5054804;28;20049;-61
2021/08/23 05:23:58;;;;;;;12.27;10.23;;;22.10;85.40;;;;;;5054995;28;20037;-62
2021/08/23 05:26:24;;;;;;;12.15;10.02;;;22.20;85.30;;;;;;5053851;28;20029;-62
2021/08/23 05:28:50;;;;;;;14.82;10.95;;;22.20;84.60;;;;;;5055206;28;20501;-63
2021/08/23 05:31:17;;;;;;;11.13;9.93;;;22.20;83.70;;;;;;5054431;28;20369;-63
2021/08/23 05:33:43;;;;;;;12.93;10.60;;;22.20;84.00;;;;;;5054889;28;20056;-62
2021/08/23 05:36:10;;;;;;;13.57;9.93;;;22.20;83.30;;;;;;5053376;28;20029;-62
2021/08/23 05:38:36;;;;;;;11.93;10.18;;;22.20;83.30;;;;;;5054430;28;20033;-62
2021/08/23 05:41:03;;;;;;;12.57;10.50;;;22.20;83.40;;;;;;5053126;28;20416;-63
2021/08/23 05:43:29;;;;;;;11.40;8.80;;;22.30;83.30;;;;;;5054482;28;20339;-63
2021/08/23 05:45:57;;;;;;;14.52;11.45;;;22.20;83.70;;;;;;5054593;28;20029;-62
2021/08/23 05:48:24;;;;;;;11.27;8.80;;;22.20;83.00;;;;;;5054768;28;20028;-62
2021/08/23 05:50:50;;;;;;;12.48;10.68;;;22.00;84.20;;;;;;5054414;28;20044;-63
2021/08/23 05:53:16;;;;;;;13.23;9.57;;;22.10;83.30;;;;;;5054630;28;20056;-62
2021/08/23 05:55:43;;;;;;;17.95;10.55;;;22.10;83.80;;;;;;5054340;28;20040;-61
2021/08/23 05:58:09;;;;;;;15.05;9.40;;;22.20;83.80;;;;;;5053651;28;20515;-61
2021/08/23 06:00:36;;;;;;;12.90;9.82;;;22.10;83.50;;;;;;5054162;28;20051;-62
2021/08/23 06:03:03;;;;;;;13.73;10.23;;;21.90;83.60;;;;;;5054022;28;20079;-62
2021/08/23 06:05:30;;;;;;;12.65;10.93;;;22.00;83.90;;;;;;5053365;28;20067;-63
2021/08/23 06:07:57;;;;;;;14.27;9.82;;;22.00;84.20;;;;;;5054101;28;20033;-61
2021/08/23 06:10:23;;;;;;;14.90;9.98;;;22.10;83.90;;;;;;5053993;28;20041;-61
2021/08/23 06:12:50;;;;;;;13.43;10.30;;;22.20;83.40;;;;;;5054117;28;20028;-65
2021/08/23 06:15:17;;;;;;;11.68;9.07;;;22.40;83.00;;;;;;5054163;28;20049;-62
2021/08/23 06:17:44;;;;;;;12.85;10.80;;;22.50;82.60;;;;;;5053103;28;20048;-61
2021/08/23 06:20:10;;;;;;;17.90;12.48;;;22.60;82.70;;;;;;5050196;28;20055;-61
2021/08/23 06:22:37;;;;;;;14.77;11.98;;;22.50;83.00;;;;;;5051468;28;20033;-64
2021/08/23 06:25:06;;;;;;;14.00;11.18;;;22.20;84.80;;;;;;5052630;28;20484;-64
2021/08/23 06:27:32;;;;;;;13.90;11.00;;;22.00;86.10;;;;;;5053495;28;20049;-62
2021/08/23 06:30:01;;;;;;;13.50;9.95;;;22.30;85.30;;;;;;5053190;28;20053;-63
2021/08/23 06:32:28;;;;;;;15.93;12.60;;;22.60;83.60;;;;;;5053782;28;20029;-63
2021/08/23 06:34:54;;;;;;;14.70;11.25;;;22.80;83.00;;;;;;5053555;28;20036;-63
2021/08/23 06:37:21;;;;;;;11.68;10.48;;;23.00;82.40;;;;;;5053348;28;20036;-63
2021/08/23 06:39:48;;;;;;;14.45;10.38;;;23.20;81.40;;;;;;5052940;28;20032;-64
2021/08/23 06:42:15;;;;;;;12.45;10.43;;;23.40;80.60;;;;;;5053862;28;20052;-63
2021/08/23 06:44:41;;;;;;;13.38;10.05;;;23.50;79.60;;;;;;5052899;28;20394;-64
2021/08/23 06:47:08;;;;;;;13.40;11.02;;;23.60;78.50;;;;;;5053488;28;20029;-63
2021/08/23 06:49:34;;;;;;;14.23;10.18;;;23.60;78.70;;;;;;5053230;28;20477;-63
2021/08/23 06:52:01;;;;;;;12.50;9.93;;;23.50;78.90;;;;;;5052946;28;20560;-63
2021/08/23 06:54:27;;;;;;;13.48;9.93;;;23.60;78.90;;;;;;5053344;28;20033;-63
2021/08/23 06:56:53;;;;;;;12.52;10.77;;;23.60;77.70;;;;;;5053207;28;20420;-64
2021/08/23 06:59:20;;;;;;;12.93;10.73;;;23.50;78.80;;;;;;5052481;28;20045;-63
2021/08/23 07:01:46;;;;;;;19.85;11.98;;;23.50;79.70;;;;;;5052520;28;20044;-60
2021/08/23 07:04:13;;;;;;;16.08;10.93;;;23.60;79.50;;;;;;5053429;28;20184;-65
2021/08/23 07:06:39;;;;;;;13.27;9.80;;;23.80;78.10;;;;;;5052158;28;20045;-64
2021/08/23 07:09:06;;;;;;;11.20;9.98;;;24.00;76.60;;;;;;5051521;28;20029;-63
2021/08/23 07:11:32;;;;;;;13.68;10.05;;;24.20;75.90;;;;;;5052996;28;20025;-63
2021/08/23 07:13:58;;;;;;;12.18;10.63;;;24.10;74.40;;;;;;5050879;28;20037;-66
2021/08/23 07:16:25;;;;;;;15.32;9.95;;;24.10;74.80;;;;;;5052918;28;20028;-64
2021/08/23 07:18:52;;;;;;;12.07;9.07;;;24.30;73.60;;;;;;5052589;28;20041;-64
2021/08/23 07:21:18;;;;;;;13.35;9.23;;;24.40;72.30;;;;;;5051327;28;20049;-65
2021/08/23 07:23:44;;;;;;;9.13;8.05;;;24.60;71.90;;;;;;5034693;28;20061;-64
2021/08/23 07:26:11;;;;;;;13.65;8.52;;;24.50;69.60;;;;;;5052935;28;20039;-61
2021/08/23 07:28:37;;;;;;;16.67;8.45;;;24.60;69.00;;;;;;5051818;28;20056;-63
2021/08/23 07:31:04;;;;;;;11.98;7.85;;;24.70;69.40;;;;;;5051578;28;20048;-65
2021/08/23 07:33:31;;;;;;;52.85;41.53;;;24.70;68.50;;;;;;5052564;28;20393;-65
2021/08/23 07:35:58;;;;;;;55.03;37.95;;;24.80;68.30;;;;;;5051105;28;20044;-65
2021/08/23 07:38:26;;;;;;;68.30;52.20;;;24.90;67.80;;;;;;5051861;28;20045;-69
2021/08/23 07:40:52;;;;;;;54.28;40.20;;;25.00;67.40;;;;;;5053029;28;20048;-64
2021/08/23 07:43:19;;;;;;;143.55;105.05;;;25.10;66.90;;;;;;5052751;28;20041;-64
2021/08/23 07:45:47;;;;;;;49.78;39.88;;;25.30;66.30;;;;;;5052500;28;20025;-64
2021/08/23 07:48:14;;;;;;;13.30;11.85;;;25.40;65.90;;;;;;5052510;28;20488;-64
2021/08/23 07:50:41;;;;;;;15.35;9.45;;;25.40;63.20;;;;;;5052390;28;20033;-64
2021/08/23 07:53:08;;;;;;;13.38;10.98;;;25.40;63.80;;;;;;5052393;28;20033;-62
2021/08/23 07:55:36;;;;;;;12.55;10.73;;;25.50;64.90;;;;;;5052710;28;20047;-60
2021/08/23 07:58:02;;;;;;;14.30;8.70;;;25.50;65.40;;;;;;5052559;28;20044;-60
2021/08/23 08:00:29;;;;;;;12.23;10.63;;;25.50;66.50;;;;;;5051877;28;20037;-60
2021/08/23 08:02:55;;;;;;;11.68;8.65;;;25.50;66.70;;;;;;5051537;28;20053;-60
2021/08/23 08:05:22;;;;;;;13.70;10.77;;;25.60;66.70;;;;;;5051283;28;20037;-60
2021/08/23 08:07:48;;;;;;;12.30;9.93;;;25.50;66.50;;;;;;5051317;28;20389;-61
2021/08/23 08:10:15;;;;;;;14.98;10.30;;;25.50;67.20;;;;;;5050603;28;20378;-60
2021/08/23 08:12:42;;;;;;;12.77;9.75;;;25.40;66.40;;;;;;5051445;28;20041;-60
2021/08/23 08:15:09;;;;;;;14.02;9.80;;;25.20;67.20;;;;;;5050761;28;20064;-60
2021/08/23 08:17:36;;;;;;;12.25;10.20;;;25.40;67.40;;;;;;5052058;28;20032;-59
2021/08/23 08:20:06;;;;;;;12.27;8.88;;;25.40;66.90;;;;;;5051845;28;20461;-58
2021/08/23 08:22:32;;;;;;;15.15;9.57;;;25.40;67.10;;;;;;5050520;28;20037;-60
2021/08/23 08:24:59;;;;;;;11.57;8.55;;;25.20;67.00;;;;;;5051847;28;20041;-60
2021/08/23 08:27:25;;;;;;;12.38;8.32;;;25.40;66.70;;;;;;5051902;28;20036;-59
2021/08/23 08:29:52;;;;;;;12.00;9.68;;;25.40;65.00;;;;;;5051644;28;20052;-59
2021/08/23 08:32:18;;;;;;;9.45;7.53;;;25.30;65.00;;;;;;5051778;28;20041;-59
2021/08/23 08:34:44;;;;;;;9.68;7.93;;;25.50;63.10;;;;;;5051885;28;20048;-59
2021/08/23 08:37:11;;;;;;;10.95;8.80;;;25.40;61.40;;;;;;5051312;28;20041;-59
2021/08/23 08:39:38;;;;;;;10.27;8.13;;;25.50;61.60;;;;;;5052337;28;20480;-59
2021/08/23 08:42:05;;;;;;;18.45;10.15;;;25.50;62.80;;;;;;5055744;28;20032;-60
2021/08/23 08:44:34;;;;;;;9.98;8.02;;;25.40;62.70;;;;;;5055496;28;20029;-59
2021/08/23 08:47:01;;;;;;;11.88;8.32;;;25.50;62.70;;;;;;5055488;28;20029;-59
2021/08/23 08:49:32;;;;;;;11.75;7.88;;;25.60;61.70;;;;;;5056093;28;20033;-59
2021/08/23 08:51:58;;;;;;;12.80;9.10;;;25.60;61.30;;;;;;5055378;28;20047;-59
2021/08/23 08:54:25;;;;;;;11.75;8.77;;;25.60;62.00;;;;;;5055940;28;20037;-59
2021/08/23 08:56:51;;;;;;;11.50;8.85;;;25.70;62.20;;;;;;5055376;28;20025;-59
2021/08/23 08:59:17;;;;;;;9.98;8.13;;;25.80;61.80;;;;;;5053829;28;20033;-59
2021/08/23 09:01:45;;;;;;;13.98;9.48;;;25.90;61.60;;;;;;5054015;28;20481;-58
2021/08/23 09:04:11;;;;;;;9.98;8.75;;;25.90;61.80;;;;;;5055658;28;20044;-59
2021/08/23 09:06:42;;;;;;;14.95;8.68;;;25.90;62.40;;;;;;5054835;28;20045;-59
2021/08/23 09:09:12;;;;;;;11.68;10.43;;;26.00;62.80;;;;;;5055354;28;20029;-60
2021/08/23 09:11:40;;;;;;;12.85;8.55;;;26.00;63.10;;;;;;5055169;28;20040;-60
2021/08/23 09:14:08;;;;;;;14.13;8.38;;;26.00;63.30;;;;;;5054262;28;20028;-60
2021/08/23 09:16:40;;;;;;;9.48;8.43;;;26.00;62.80;;;;;;5054499;28;20049;-59
2021/08/23 09:19:08;;;;;;;10.45;8.60;;;26.00;63.40;;;;;;5055377;28;20040;-59
2021/08/23 09:21:40;;;;;;;8.68;7.50;;;26.10;63.80;;;;;;5054461;28;20465;-60
2021/08/23 09:24:17;;;;;;;13.07;8.95;;;26.20;60.80;;;;;;5054946;28;20508;-59
2021/08/23 09:26:44;;;;;;;12.77;8.73;;;26.20;59.70;;;;;;5055285;28;20040;-59
2021/08/23 09:29:11;;;;;;;13.93;9.25;;;26.20;60.60;;;;;;5054310;28;20048;-60
2021/08/23 09:31:39;;;;;;;12.23;8.95;;;26.10;61.10;;;;;;5055124;28;20040;-60
2021/08/23 09:34:08;;;;;;;11.05;8.25;;;26.20;62.00;;;;;;5054863;28;20381;-60
2021/08/23 09:36:35;;;;;;;12.20;9.63;;;26.30;61.60;;;;;;5054273;28;20048;-60
2021/08/23 09:39:12;;;;;;;12.30;8.82;;;26.40;61.20;;;;;;5054298;28;20041;-68
2021/08/23 09:41:41;;;;;;;12.60;8.32;;;26.30;61.30;;;;;;5055108;28;20033;-60
2021/08/23 09:44:14;;;;;;;13.97;9.53;;;26.50;61.80;;;;;;5054418;28;20037;-61
2021/08/23 09:46:43;;;;;;;10.35;8.82;;;26.60;61.80;;;;;;5053508;28;20037;-64
2021/08/23 09:49:12;;;;;;;12.10;10.02;;;26.60;61.90;;;;;;5053325;28;20044;-60
2021/08/23 09:51:44;;;;;;;14.35;9.32;;;26.70;61.70;;;;;;5053039;28;20045;-60
2021/08/23 09:54:19;;;;;;;17.55;9.07;;;26.70;60.00;;;;;;5054550;28;20037;-60
2021/08/23 09:56:54;;;;;;;12.70;9.70;;;26.70;58.40;;;;;;5053957;28;20041;-61
2021/08/23 09:59:22;;;;;;;12.90;8.35;;;26.70;59.90;;;;;;5054627;28;20029;-59
2021/08/23 10:01:51;;;;;;;12.52;9.10;;;26.70;59.30;;;;;;5053082;28;20041;-60
2021/08/23 10:04:19;;;;;;;15.32;8.82;;;26.70;59.20;;;;;;5054070;28;20048;-60
2021/08/23 10:06:47;;;;;;;11.85;9.73;;;26.80;59.60;;;;;;5053891;28;20041;-60
2021/08/23 10:09:18;;;;;;;13.05;10.20;;;26.70;60.10;;;;;;5054137;28;20361;-60
2021/08/23 10:11:45;;;;;;;12.00;10.27;;;26.80;60.60;;;;;;5052044;28;20044;-61
2021/08/23 10:14:11;;;;;;;13.32;11.52;;;27.00;61.00;;;;;;5054118;28;20045;-59
2021/08/23 10:16:38;;;;;;;15.35;12.68;;;27.10;60.90;;;;;;5053676;28;20052;-60
2021/08/23 10:19:05;;;;;;;16.27;10.35;;;27.10;60.40;;;;;;5053038;28;20054;-69
2021/08/23 10:21:32;;;;;;;11.15;10.05;;;27.20;59.90;;;;;;5053708;28;20048;-60
2021/08/23 10:24:00;;;;;;;11.88;9.35;;;27.30;59.80;;;;;;5053991;28;20060;-60
2021/08/23 10:26:26;;;;;;;12.82;8.70;;;27.30;59.50;;;;;;5053171;28;20029;-63
2021/08/23 10:28:53;;;;;;;11.90;10.30;;;27.30;59.30;;;;;;5053556;28;20060;-64
2021/08/23 10:31:21;;;;;;;10.10;8.40;;;27.20;59.40;;;;;;5053588;28;20034;-61
2021/08/23 10:33:49;;;;;;;9.48;8.35;;;27.00;60.20;;;;;;5053245;28;20468;-66
2021/08/23 10:36:17;;;;;;;11.25;8.65;;;27.20;60.10;;;;;;5053526;28;20037;-60
2021/08/23 10:38:45;;;;;;;9.75;8.05;;;27.20;59.20;;;;;;5053267;28;20033;-60
2021/08/23 10:41:14;;;;;;;10.57;6.45;;;27.30;59.50;;;;;;5053251;28;20032;-65
2021/08/23 10:44:07;;;;;;;8.25;6.38;;;27.30;56.90;;;;;;5053092;28;20056;-61
2021/08/23 10:46:38;;;;;;;7.75;6.13;;;27.40;56.90;;;;;;5053249;28;20048;-60
2021/08/23 10:49:10;;;;;;;10.40;5.90;;;27.40;56.60;;;;;;5052953;28;20036;-60
2021/08/23 10:51:42;;;;;;;7.22;5.00;;;27.50;56.40;;;;;;5053584;28;20033;-61
2021/08/23 10:54:22;;;;;;;9.35;5.93;;;27.60;54.10;;;;;;5053021;28;20052;-60
2021/08/23 10:57:00;;;;;;;9.30;5.70;;;27.60;53.70;;;;;;5052617;28;20383;-61
2021/08/23 11:00:07;;;;;;;9.80;5.00;;;27.60;53.60;;;;;;5053044;28;20527;-61
2021/08/23 11:02:38;;;;;;;10.90;5.20;;;27.60;53.70;;;;;;5051690;28;20049;-60
2021/08/23 11:05:09;;;;;;;7.53;5.68;;;27.70;53.50;;;;;;5052635;28;20482;-59
2021/08/23 11:07:40;;;;;;;9.95;6.03;;;27.80;53.60;;;;;;5053152;28;20033;-60
2021/08/23 11:10:14;;;;;;;10.20;6.15;;;27.80;53.30;;;;;;5052466;28;20045;-60
2021/08/23 11:12:52;;;;;;;8.27;6.07;;;27.70;53.60;;;;;;5052532;28;20025;-62
2021/08/23 11:15:23;;;;;;;9.90;6.18;;;27.80;54.00;;;;;;5052993;28;20516;-60
2021/08/23 11:17:52;;;;;;;8.63;6.80;;;27.90;54.00;;;;;;5053170;28;20397;-60
2021/08/23 11:20:25;;;;;;;11.40;6.25;;;28.00;54.40;;;;;;5051168;28;20029;-60
2021/08/23 11:22:55;;;;;;;13.20;6.75;;;28.00;54.60;;;;;;5052639;28;20257;-60
2021/08/23 11:25:32;;;;;;;8.80;6.32;;;28.10;54.80;;;;;;5052272;28;20060;-60
2021/08/23 11:28:01;;;;;;;10.52;6.40;;;28.20;54.30;;;;;;5052603;28;20045;-60
2021/08/23 11:30:48;;;;;;;9.68;6.82;;;28.20;54.30;;;;;;5052572;28;20478;-59
2021/08/23 11:33:28;;;;;;;12.15;7.97;;;28.30;54.10;;;;;;5052084;28;20850;-60
2021/08/23 11:35:55;;;;;;;10.85;7.03;;;28.30;54.00;;;;;;5051199;28;20472;-62
2021/08/23 11:38:33;;;;;;;9.38;7.32;;;28.30;53.60;;;;;;5052796;28;20037;-62
2021/08/23 11:41:01;;;;;;;9.50;6.72;;;27.90;54.40;;;;;;5052128;28;20045;-60
2021/08/23 11:43:30;;;;;;;8.68;6.78;;;27.80;54.50;;;;;;5052553;28;20044;-63
2021/08/23 11:45:58;;;;;;;9.90;7.28;;;27.70;54.70;;;;;;5052362;28;20033;-60
2021/08/23 11:48:25;;;;;;;10.05;7.70;;;27.80;54.80;;;;;;5052081;28;20029;-61
2021/08/23 11:50:52;;;;;;;9.82;6.55;;;28.00;54.70;;;;;;5052668;28;20051;-61
2021/08/23 11:53:23;;;;;;;9.77;6.82;;;28.10;54.80;;;;;;5051130;28;20477;-61
2021/08/23 11:55:50;;;;;;;10.32;7.72;;;28.10;54.00;;;;;;5051804;28;20032;-60
2021/08/23 11:58:20;;;;;;;9.07;6.57;;;28.00;54.30;;;;;;5052087;28;20033;-62
2021/08/23 12:01:07;;;;;;;9.73;7.00;;;28.10;54.60;;;;;;5052400;28;20036;-65
2021/08/23 12:03:37;;;;;;;15.55;6.50;;;28.20;54.10;;;;;;5047840;28;20041;-60
2021/08/23 12:06:08;;;;;;;8.98;5.75;;;28.30;52.70;;;;;;5052216;28;20040;-60
2021/08/23 12:08:37;;;;;;;7.50;6.25;;;28.50;51.80;;;;;;5052017;28;20383;-60
2021/08/23 12:11:17;;;;;;;11.13;5.95;;;28.60;51.50;;;;;;5051678;28;20389;-64
2021/08/23 12:13:46;;;;;;;5.75;5.00;;;28.70;51.50;;;;;;5052323;28;20029;-60
2021/08/23 12:16:15;;;;;;;10.43;5.78;;;28.70;50.40;;;;;;5054581;28;20052;-60
2021/08/23 12:18:48;;;;;;;9.50;6.23;;;28.70;50.80;;;;;;5055880;28;20033;-62
2021/08/23 12:21:27;;;;;;;9.02;5.03;;;28.70;48.30;;;;;;5056548;28;20036;-60
2021/08/23 12:23:57;;;;;;;11.13;5.67;;;28.70;48.00;;;;;;5055514;28;20849;-59
2021/08/23 12:26:25;;;;;;;9.43;6.20;;;28.80;48.10;;;;;;5056053;28;20493;-60
2021/08/23 12:28:54;;;;;;;7.53;6.05;;;28.70;49.60;;;;;;5055254;28;20055;-60
2021/08/23 12:31:21;;;;;;;6.43;5.73;;;28.80;50.00;;;;;;5055621;28;20044;-60
2021/08/23 12:33:47;;;;;;;6.90;5.93;;;28.80;49.60;;;;;;5053813;28;20045;-60
2021/08/23 12:36:14;;;;;;;8.65;5.80;;;28.80;50.10;;;;;;5055255;28;20044;-60
2021/08/23 12:38:43;;;;;;;9.60;6.97;;;28.90;50.20;;;;;;5054860;28;20056;-59
2021/08/23 12:41:11;;;;;;;10.43;7.53;;;29.00;50.40;;;;;;5055280;28;20393;-59